createdAt,value
2023-04-15T00:00:34.399Z,12.38
2023-04-15T00:03:21.891Z,12.13
2023-04-15T00:06:11.206Z,12.88
2023-04-15T00:08:59.241Z,12.90
2023-04-15T00:11:47.262Z,12.00
2023-04-15T00:14:35.779Z,12.95
2023-04-15T00:17:23.448Z,12.65
2023-04-15T00:20:11.992Z,13.82
2023-04-15T00:23:00.923Z,12.93
2023-04-15T00:25:48.699Z,12.63
2023-04-15T00:28:36.148Z,11.90
2023-04-15T00:31:24.353Z,12.48
2023-04-15T00:34:12.233Z,10.63
2023-04-15T00:36:59.845Z,12.15
2023-04-15T00:39:48.991Z,12.07
2023-04-15T00:42:37.626Z,12.18
2023-04-15T00:45:25.299Z,13.13
2023-04-15T00:48:13.507Z,12.18
2023-04-15T00:51:02.539Z,12.75
2023-04-15T00:53:50.118Z,12.32
2023-04-15T00:56:40.155Z,13.32
2023-04-15T00:59:28.198Z,14.10
2023-04-15T01:02:16.682Z,13.02
2023-04-15T01:05:05.280Z,13.43
2023-04-15T01:07:53.115Z,12.82
2023-04-15T01:10:41.540Z,12.70
2023-04-15T01:13:30.849Z,12.45
2023-04-15T01:16:18.515Z,12.50
2023-04-15T01:19:06.022Z,11.95
2023-04-15T01:21:53.842Z,13.40
2023-04-15T01:24:41.665Z,12.82
2023-04-15T01:27:31.320Z,13.25
2023-04-15T01:30:18.621Z,13.02
2023-04-15T01:33:07.785Z,12.32
2023-04-15T01:35:55.841Z,12.88
2023-04-15T01:38:46.224Z,12.98
2023-04-15T01:41:35.310Z,11.90
2023-04-15T01:44:24.423Z,12.25
2023-04-15T01:47:12.476Z,12.07
2023-04-15T01:50:00.005Z,11.77
2023-04-15T01:52:49.686Z,12.15
2023-04-15T01:55:37.325Z,12.07
2023-04-15T01:58:25.151Z,12.65
2023-04-15T02:01:15.255Z,12.23
2023-04-15T02:04:02.956Z,11.85
2023-04-15T02:06:51.936Z,12.18
2023-04-15T02:09:43.552Z,12.93
2023-04-15T02:12:31.274Z,12.55
2023-04-15T02:15:18.816Z,12.77
2023-04-15T02:18:07.826Z,13.32
2023-04-15T02:20:58.890Z,14.25
2023-04-15T02:23:48.399Z,13.27
2023-04-15T02:26:36.299Z,13.65
2023-04-15T02:29:24.495Z,13.57
2023-04-15T02:32:13.041Z,12.15
2023-04-15T02:35:05.755Z,12.80
2023-04-15T02:37:53.785Z,11.07
2023-04-15T02:40:41.273Z,11.40
2023-04-15T02:43:28.949Z,11.48
2023-04-15T02:46:17.025Z,12.20
2023-04-15T02:49:05.027Z,11.68
2023-04-15T02:51:54.054Z,11.95
2023-04-15T02:54:41.386Z,11.30
2023-04-15T02:57:29.757Z,12.07
2023-04-15T03:00:19.334Z,10.65
2023-04-15T03:03:08.448Z,12.10
2023-04-15T03:05:56.302Z,11.80
2023-04-15T03:08:45.744Z,11.73
2023-04-15T03:11:36.439Z,11.77
2023-04-15T03:14:24.360Z,12.43
2023-04-15T03:17:12.029Z,14.05
2023-04-15T03:19:59.724Z,13.93
2023-04-15T03:22:47.944Z,13.85
2023-04-15T03:25:38.250Z,15.18
2023-04-15T03:28:27.853Z,14.55
2023-04-15T03:31:16.328Z,13.73
2023-04-15T03:34:03.817Z,14.18
2023-04-15T03:36:51.401Z,13.15
2023-04-15T03:39:39.320Z,13.73
2023-04-15T03:42:28.374Z,13.63
2023-04-15T03:45:16.361Z,14.60
2023-04-15T03:48:16.482Z,13.05
2023-04-15T03:51:05.105Z,12.43
2023-04-15T03:53:52.364Z,12.23
2023-04-15T03:56:40.045Z,11.10
2023-04-15T03:59:29.622Z,9.63
2023-04-15T04:02:17.476Z,10.68
2023-04-15T04:05:05.404Z,9.75
2023-04-15T04:07:53.033Z,10.18
2023-04-15T04:10:40.683Z,10.23
2023-04-15T04:13:28.614Z,9.00
2023-04-15T04:16:17.520Z,9.18
2023-04-15T04:19:04.877Z,8.13
2023-04-15T04:21:53.082Z,8.80
2023-04-15T04:24:40.577Z,8.02
2023-04-15T04:27:28.078Z,6.85
2023-04-15T04:30:15.487Z,5.63
2023-04-15T04:33:04.662Z,5.00
2023-04-15T04:35:52.361Z,4.35
2023-04-15T04:38:40.066Z,3.53
2023-04-15T04:41:27.476Z,3.00
2023-04-15T04:44:14.978Z,2.70
2023-04-15T04:47:02.504Z,2.47
2023-04-15T04:49:51.262Z,2.65
2023-04-15T04:52:38.777Z,2.28
2023-04-15T04:55:26.153Z,2.53
2023-04-15T04:58:13.688Z,2.80
2023-04-15T05:01:01.533Z,2.17
2023-04-15T05:03:49.300Z,2.30
2023-04-15T05:06:38.160Z,1.88
2023-04-15T05:09:26.075Z,1.75
2023-04-15T05:12:15.095Z,1.80
2023-04-15T05:15:02.663Z,1.77
2023-04-15T05:17:50.212Z,1.50
2023-04-15T05:20:37.525Z,1.35
2023-04-15T05:23:26.427Z,1.85
2023-04-15T05:26:13.817Z,1.52
2023-04-15T05:29:01.858Z,1.48
2023-04-15T05:31:49.918Z,1.70
2023-04-15T05:34:37.395Z,1.85
2023-04-15T05:37:24.953Z,1.90
2023-04-15T05:40:14.412Z,1.83
2023-04-15T05:43:02.178Z,1.48
2023-04-15T05:45:49.854Z,1.80
2023-04-15T05:48:37.198Z,1.98
2023-04-15T05:51:24.738Z,1.63
2023-04-15T05:54:12.382Z,2.00
2023-04-15T05:57:01.839Z,1.90
2023-04-15T05:59:49.313Z,2.13
2023-04-15T06:02:37.192Z,1.83
2023-04-15T06:05:24.967Z,2.15
2023-04-15T06:08:12.653Z,2.10
2023-04-15T06:11:00.519Z,1.70
2023-04-15T06:13:49.518Z,1.75
2023-04-15T06:16:37.677Z,1.83
2023-04-15T06:19:26.230Z,1.90
2023-04-15T06:22:13.740Z,1.55
2023-04-15T06:25:01.471Z,1.50
2023-04-15T06:27:49.468Z,1.30
2023-04-15T06:30:38.587Z,1.50
2023-04-15T06:33:26.128Z,1.45
2023-04-15T06:36:14.001Z,1.35
2023-04-15T06:39:02.081Z,1.63
2023-04-15T06:41:50.354Z,1.33
2023-04-15T06:44:42.303Z,1.33
2023-04-15T06:47:30.934Z,1.30
2023-04-15T06:50:18.829Z,1.27
2023-04-15T06:53:06.719Z,1.38
2023-04-15T06:55:54.333Z,0.95
2023-04-15T06:58:41.743Z,1.40
2023-04-15T07:01:29.457Z,1.40
2023-04-15T07:04:18.764Z,1.70
2023-04-15T07:07:06.433Z,1.80
2023-04-15T07:09:53.888Z,1.65
2023-04-15T07:12:41.562Z,2.15
2023-04-15T07:15:29.357Z,1.63
2023-04-15T07:18:16.666Z,1.88
2023-04-15T07:21:05.745Z,2.35
2023-04-15T07:23:53.500Z,2.40
2023-04-15T07:26:41.104Z,1.67
2023-04-15T07:29:28.553Z,1.70
2023-04-15T07:32:16.004Z,1.60
2023-04-15T07:35:03.862Z,1.70
2023-04-15T07:37:52.545Z,1.30
2023-04-15T07:40:40.473Z,1.50
2023-04-15T07:43:28.173Z,1.17
2023-04-15T07:46:16.231Z,1.40
2023-04-15T07:49:04.223Z,1.10
2023-04-15T07:51:52.010Z,1.38
2023-04-15T07:54:40.819Z,1.35
2023-04-15T07:57:28.751Z,1.30
2023-04-15T08:00:17.001Z,1.20
2023-04-15T08:03:04.642Z,1.42
2023-04-15T08:05:52.514Z,1.45
2023-04-15T08:08:40.123Z,1.40
2023-04-15T08:11:29.141Z,1.33
2023-04-15T08:14:16.889Z,1.20
2023-04-15T08:17:04.310Z,1.23
2023-04-15T08:19:51.927Z,1.27
2023-04-15T08:22:39.269Z,1.17
2023-04-15T08:25:27.343Z,1.17
2023-04-15T08:28:17.414Z,0.88
2023-04-15T08:31:05.143Z,0.82
2023-04-15T08:33:53.651Z,0.93
2023-04-15T08:36:41.144Z,1.13
2023-04-15T08:39:28.763Z,1.10
2023-04-15T08:42:19.085Z,1.10
2023-04-15T08:45:11.330Z,1.00
2023-04-15T08:48:00.489Z,0.90
2023-04-15T08:50:49.375Z,0.88
2023-04-15T08:53:36.937Z,1.17
2023-04-15T08:56:27.732Z,1.30
2023-04-15T08:59:16.651Z,1.00
2023-04-15T09:02:06.911Z,1.60
2023-04-15T09:04:55.161Z,1.05
2023-04-15T09:07:42.686Z,1.10
2023-04-15T09:10:30.214Z,1.05
2023-04-15T09:13:17.820Z,1.33
2023-04-15T09:16:10.903Z,0.90
2023-04-15T09:18:59.963Z,0.75
2023-04-15T09:21:49.070Z,1.00
2023-04-15T09:24:39.796Z,1.15
2023-04-15T09:27:27.415Z,0.50
2023-04-15T09:30:15.193Z,0.70
2023-04-15T09:33:08.125Z,0.73
2023-04-15T09:36:02.478Z,0.60
2023-04-15T09:38:57.441Z,0.70
2023-04-15T09:41:45.229Z,0.47
2023-04-15T09:44:33.158Z,0.45
2023-04-15T09:47:31.511Z,0.55
2023-04-15T09:50:20.180Z,0.55
2023-04-15T09:53:11.980Z,0.50
2023-04-15T09:56:02.452Z,0.50
2023-04-15T09:58:58.536Z,0.52
2023-04-15T10:01:46.903Z,0.30
2023-04-15T10:04:37.686Z,0.45
2023-04-15T10:07:26.857Z,0.30
2023-04-15T10:10:16.867Z,0.32
2023-04-15T10:13:05.219Z,0.40
2023-04-15T10:16:00.666Z,0.40
2023-04-15T10:18:49.517Z,0.30
2023-04-15T10:21:38.764Z,0.38
2023-04-15T10:24:27.937Z,0.60
2023-04-15T10:27:18.311Z,0.50
2023-04-15T10:30:07.886Z,0.45
2023-04-15T10:32:59.547Z,0.40
2023-04-15T10:35:49.021Z,0.40
2023-04-15T10:38:38.245Z,0.40
2023-04-15T10:41:28.015Z,0.25
2023-04-15T10:44:17.018Z,0.40
2023-04-15T10:47:11.482Z,0.30
2023-04-15T10:50:00.490Z,0.32
2023-04-15T10:52:51.699Z,0.40
2023-04-15T10:55:39.362Z,0.52
2023-04-15T10:58:27.596Z,0.30
2023-04-15T11:01:16.857Z,0.50
2023-04-15T11:04:04.896Z,0.22
2023-04-15T11:07:07.037Z,0.40
2023-04-15T11:09:54.698Z,0.15
2023-04-15T11:12:43.178Z,0.40
2023-04-15T11:15:33.193Z,0.50
2023-04-15T11:18:23.752Z,0.40
2023-04-15T11:21:11.283Z,0.57
2023-04-15T11:23:58.793Z,0.22
2023-04-15T11:26:46.691Z,0.30
2023-04-15T11:29:34.353Z,0.45
2023-04-15T11:32:23.183Z,0.30
2023-04-15T11:35:12.310Z,0.20
2023-04-15T11:38:01.053Z,0.50
2023-04-15T11:40:49.154Z,1.83
2023-04-15T11:43:36.544Z,0.40
2023-04-15T11:46:31.433Z,0.73
2023-04-15T11:49:28.943Z,0.73
2023-04-15T11:52:18.005Z,0.80
2023-04-15T11:55:06.044Z,0.30
2023-04-15T11:58:08.224Z,0.68
2023-04-15T12:00:57.143Z,0.57
2023-04-15T12:03:47.142Z,0.40
2023-04-15T12:06:36.950Z,0.32
2023-04-15T12:09:25.692Z,0.15
2023-04-15T12:12:12.951Z,0.30
2023-04-15T12:15:00.793Z,0.25
2023-04-15T12:17:51.950Z,0.30
2023-04-15T12:20:45.861Z,0.40
2023-04-15T12:23:37.885Z,0.50
2023-04-15T12:26:31.420Z,0.35
2023-04-15T12:29:19.467Z,0.52
2023-04-15T12:32:09.060Z,0.47
2023-04-15T12:34:56.636Z,0.32
2023-04-15T12:37:44.381Z,0.40
2023-04-15T12:40:31.703Z,0.30
2023-04-15T12:43:20.785Z,0.40
2023-04-15T12:46:08.636Z,0.40
2023-04-15T12:48:56.597Z,0.30
2023-04-15T12:51:44.068Z,0.50
2023-04-15T12:54:32.660Z,0.32
2023-04-15T12:57:20.055Z,0.30
2023-04-15T13:00:10.442Z,0.38
2023-04-15T13:02:57.748Z,0.30
2023-04-15T13:05:45.200Z,0.40
2023-04-15T13:08:32.894Z,0.20
2023-04-15T13:11:20.286Z,0.40
2023-04-15T13:14:09.936Z,0.40
2023-04-15T13:16:58.968Z,0.40
2023-04-15T13:19:46.457Z,0.30
2023-04-15T13:22:33.821Z,0.63
2023-04-15T13:25:21.623Z,0.47
2023-04-15T13:28:09.367Z,0.50
2023-04-15T13:30:57.051Z,0.40
2023-04-15T13:33:45.805Z,0.50
2023-04-15T13:36:33.352Z,0.52
2023-04-15T13:39:20.848Z,0.73
2023-04-15T13:42:08.331Z,0.40
2023-04-15T13:44:56.111Z,0.60
2023-04-15T13:47:43.995Z,0.50
2023-04-15T13:50:33.293Z,0.60
2023-04-15T13:53:21.188Z,0.30
2023-04-15T13:56:21.762Z,0.50
2023-04-15T13:59:09.331Z,0.50
2023-04-15T14:01:58.317Z,0.90
2023-04-15T14:04:45.817Z,0.40
2023-04-15T14:07:35.021Z,0.60
2023-04-15T14:10:22.900Z,0.50
2023-04-15T14:13:10.718Z,0.50
2023-04-15T14:15:58.755Z,0.75
2023-04-15T14:18:46.435Z,0.60
2023-04-15T14:21:34.360Z,0.95
2023-04-15T14:24:23.412Z,0.70
2023-04-15T14:27:12.520Z,0.60
2023-04-15T14:30:00.255Z,0.80
2023-04-15T14:32:48.245Z,0.80
2023-04-15T14:35:36.025Z,0.75
2023-04-15T14:38:23.818Z,0.50
2023-04-15T14:41:13.006Z,1.00
2023-04-15T14:44:00.767Z,0.70
2023-04-15T14:46:48.664Z,0.90
2023-04-15T14:49:36.406Z,0.80
2023-04-15T14:52:24.577Z,0.80
2023-04-15T14:55:13.590Z,1.00
2023-04-15T14:58:02.766Z,0.80
2023-04-15T15:00:50.677Z,0.90
2023-04-15T15:03:38.581Z,0.80
2023-04-15T15:06:28.725Z,0.95
2023-04-15T15:09:16.268Z,1.00
2023-04-15T15:12:04.268Z,1.00
2023-04-15T15:14:53.835Z,1.17
2023-04-15T15:17:41.990Z,1.02
2023-04-15T15:20:33.139Z,1.30
2023-04-15T15:23:20.799Z,1.15
2023-04-15T15:26:08.559Z,1.00
2023-04-15T15:28:56.502Z,1.00
2023-04-15T15:31:45.662Z,0.85
2023-04-15T15:34:33.459Z,0.80
2023-04-15T15:37:20.960Z,0.90
2023-04-15T15:40:10.324Z,1.05
2023-04-15T15:42:59.552Z,0.90
2023-04-15T15:45:47.261Z,1.42
2023-04-15T15:48:36.657Z,1.30
2023-04-15T15:51:24.102Z,0.60
2023-04-15T15:54:11.989Z,0.60
2023-04-15T15:56:59.534Z,0.90
2023-04-15T15:59:47.060Z,0.80
2023-04-15T16:05:29.490Z,0.93
2023-04-15T16:08:17.146Z,1.40
2023-04-15T16:11:04.511Z,1.20
2023-04-15T16:13:52.757Z,1.42
2023-04-15T16:16:40.964Z,1.38
2023-04-15T16:19:28.575Z,1.15
2023-04-15T16:22:17.596Z,1.35
2023-04-15T16:25:05.260Z,1.02
2023-04-15T16:28:01.454Z,1.05
2023-04-15T16:30:53.659Z,0.90
2023-04-15T16:33:41.218Z,1.08
2023-04-15T16:36:29.040Z,1.33
2023-04-15T16:39:19.376Z,1.08
2023-04-15T16:42:07.520Z,1.20
2023-04-15T16:44:56.585Z,1.20
2023-04-15T16:47:44.336Z,1.40
2023-04-15T16:50:32.087Z,1.70
2023-04-15T16:53:19.750Z,1.33
2023-04-15T16:56:09.466Z,1.20
2023-04-15T16:58:56.753Z,1.45
2023-04-15T17:01:44.845Z,2.13
2023-04-15T17:04:32.682Z,1.50
2023-04-15T17:07:20.378Z,1.60
2023-04-15T17:10:08.505Z,2.20
2023-04-15T17:12:59.245Z,2.10
2023-04-15T17:15:46.964Z,2.10
2023-04-15T17:18:34.579Z,6.25
2023-04-15T17:21:22.665Z,14.80
2023-04-15T17:24:10.408Z,11.30
2023-04-15T17:26:58.578Z,8.38
2023-04-15T17:29:48.172Z,9.85
2023-04-15T17:32:36.113Z,7.70
2023-04-15T17:35:25.668Z,6.90
2023-04-15T17:38:13.119Z,6.97
2023-04-15T17:41:01.024Z,5.65
2023-04-15T17:43:48.721Z,5.95
2023-04-15T17:46:37.722Z,6.15
2023-04-15T17:49:26.114Z,5.75
2023-04-15T17:52:13.875Z,6.95
2023-04-15T17:55:01.663Z,7.20
2023-04-15T17:57:49.340Z,8.00
2023-04-15T18:00:36.825Z,7.78
2023-04-15T18:03:26.439Z,8.13
2023-04-15T18:06:14.141Z,9.05
2023-04-15T18:09:01.981Z,9.55
2023-04-15T18:11:49.555Z,10.48
2023-04-15T18:14:37.690Z,9.93
2023-04-15T18:17:25.247Z,9.30
2023-04-15T18:20:14.510Z,9.75
2023-04-15T18:23:02.213Z,11.02
2023-04-15T18:25:49.750Z,9.90
2023-04-15T18:28:37.871Z,11.63
2023-04-15T18:31:25.613Z,10.63
2023-04-15T18:34:13.244Z,11.90
2023-04-15T18:37:02.639Z,11.38
2023-04-15T18:39:50.181Z,11.13
2023-04-15T18:42:37.552Z,10.77
2023-04-15T18:45:25.166Z,11.65
2023-04-15T18:48:14.299Z,11.82
2023-04-15T18:51:02.225Z,11.73
2023-04-15T18:53:50.920Z,10.45
2023-04-15T18:56:38.420Z,11.40
2023-04-15T18:59:30.356Z,11.63
2023-04-15T19:02:18.513Z,15.52
2023-04-15T19:05:07.037Z,17.30
2023-04-15T19:07:54.684Z,15.68
2023-04-15T19:10:43.955Z,16.40
2023-04-15T19:13:31.758Z,14.07
2023-04-15T19:16:19.414Z,12.70
2023-04-15T19:19:07.466Z,12.23
2023-04-15T19:21:55.359Z,10.68
2023-04-15T19:24:43.274Z,11.90
2023-04-15T19:27:33.023Z,12.13
2023-04-15T19:30:21.396Z,11.50
2023-04-15T19:33:08.912Z,11.00
2023-04-15T19:35:56.697Z,11.65
2023-04-15T19:38:44.221Z,10.98
2023-04-15T19:41:32.133Z,11.10
2023-04-15T19:44:21.340Z,11.13
2023-04-15T19:47:09.214Z,10.07
2023-04-15T19:49:56.926Z,10.88
2023-04-15T19:52:44.901Z,11.43
2023-04-15T19:55:33.110Z,10.48
2023-04-15T19:58:20.650Z,11.80
2023-04-15T20:01:09.724Z,10.98
2023-04-15T20:03:57.381Z,11.10
2023-04-15T20:06:44.947Z,11.60
2023-04-15T20:09:32.265Z,11.82
2023-04-15T20:12:51.206Z,10.75
2023-04-15T20:15:27.884Z,12.60
2023-04-15T20:18:16.924Z,11.82
2023-04-15T20:21:04.516Z,13.20
2023-04-15T20:23:51.972Z,11.60
2023-04-15T20:26:39.441Z,11.55
2023-04-15T20:29:27.773Z,11.65
2023-04-15T20:32:15.568Z,10.73
2023-04-15T20:35:05.065Z,11.48
2023-04-15T20:37:53.394Z,10.43
2023-04-15T20:40:41.965Z,10.57
2023-04-15T20:43:29.875Z,10.35
2023-04-15T20:46:21.272Z,11.48
2023-04-15T20:49:09.631Z,10.27
2023-04-15T20:51:58.735Z,11.80
2023-04-15T20:54:46.919Z,12.45
2023-04-15T20:57:34.481Z,11.07
2023-04-15T21:00:22.339Z,11.07
2023-04-15T21:03:12.220Z,10.40
2023-04-15T21:06:00.240Z,11.45
2023-04-15T21:08:49.367Z,11.85
2023-04-15T21:14:27.603Z,11.52
2023-04-15T21:17:15.050Z,10.25
2023-04-15T21:20:03.125Z,10.90
2023-04-15T21:22:50.777Z,11.48
2023-04-15T21:25:39.712Z,11.30
2023-04-15T21:28:28.472Z,13.45
2023-04-15T21:31:16.120Z,13.75
2023-04-15T21:34:03.764Z,13.25
2023-04-15T21:36:51.522Z,13.40
2023-04-15T21:39:39.011Z,11.88
2023-04-15T21:42:28.069Z,12.75
2023-04-15T21:45:16.412Z,13.70
2023-04-15T21:48:08.102Z,13.85
2023-04-15T21:51:00.403Z,15.07
2023-04-15T21:53:48.571Z,15.43
2023-04-15T21:56:37.905Z,15.93
2023-04-15T21:59:27.226Z,19.05
2023-04-15T22:02:15.102Z,18.85
2023-04-15T22:05:02.794Z,19.77
2023-04-15T22:07:50.599Z,17.27
2023-04-15T22:10:39.190Z,16.17
2023-04-15T22:13:26.858Z,16.10
2023-04-15T22:16:16.714Z,15.95
2023-04-15T22:19:04.611Z,15.68
2023-04-15T22:21:52.268Z,17.05
2023-04-15T22:24:40.635Z,16.65
2023-04-15T22:27:28.417Z,16.50
2023-04-15T22:30:16.064Z,15.63
2023-04-15T22:33:04.959Z,17.60
2023-04-15T22:35:52.441Z,17.15
2023-04-15T22:38:39.997Z,15.75
2023-04-15T22:41:27.696Z,21.05
2023-04-15T22:44:15.272Z,18.88
2023-04-15T22:47:02.725Z,17.88
2023-04-15T22:49:51.608Z,18.92
2023-04-15T22:52:39.169Z,18.13
2023-04-15T22:55:26.868Z,18.50
2023-04-15T22:58:14.362Z,16.38
2023-04-15T23:01:02.099Z,16.05
2023-04-15T23:03:57.095Z,15.23
2023-04-15T23:06:55.239Z,17.45
2023-04-15T23:09:42.634Z,16.02
2023-04-15T23:12:30.070Z,15.30
2023-04-15T23:15:17.823Z,16.58
2023-04-15T23:18:05.403Z,16.30
2023-04-15T23:20:52.836Z,15.50
2023-04-15T23:23:41.686Z,14.02
2023-04-15T23:26:29.708Z,14.95
2023-04-15T23:29:17.131Z,16.38
2023-04-15T23:32:04.686Z,16.48
2023-04-15T23:34:53.081Z,14.50
2023-04-15T23:37:40.929Z,14.30
2023-04-15T23:40:29.656Z,16.73
2023-04-15T23:43:17.321Z,14.57
2023-04-15T23:46:05.113Z,13.63
2023-04-15T23:48:52.683Z,16.08
2023-04-15T23:51:40.055Z,15.35
2023-04-15T23:54:27.796Z,18.33
2023-04-15T23:57:16.722Z,18.98
